createdAt,value
2023-02-13T00:00:22.351Z,38.58
2023-02-13T00:02:50.054Z,38.35
2023-02-13T00:05:17.378Z,38.50
2023-02-13T00:07:44.529Z,38.64
2023-02-13T00:10:11.955Z,38.66
2023-02-13T00:12:39.129Z,38.61
2023-02-13T00:15:07.724Z,38.45
2023-02-13T00:17:35.270Z,38.67
2023-02-13T00:20:02.435Z,38.32
2023-02-13T00:22:29.617Z,38.51
2023-02-13T00:24:57.057Z,38.81
2023-02-13T00:27:24.310Z,38.60
2023-02-13T00:29:51.486Z,38.61
2023-02-13T00:32:20.245Z,39.11
2023-02-13T00:34:47.489Z,39.24
2023-02-13T00:37:14.646Z,40.55
2023-02-13T00:39:42.172Z,39.80
2023-02-13T00:42:10.458Z,40.74
2023-02-13T00:44:37.608Z,40.01
2023-02-13T00:47:05.075Z,39.28
2023-02-13T00:49:32.230Z,39.15
2023-02-13T00:52:01.764Z,39.34
2023-02-13T00:54:29.303Z,39.74
2023-02-13T00:56:56.447Z,39.27
2023-02-13T00:59:23.604Z,39.48
2023-02-13T01:01:51.078Z,39.81
2023-02-13T01:04:18.251Z,39.34
2023-02-13T01:06:45.410Z,39.42
2023-02-13T01:09:12.892Z,38.83
2023-02-13T01:11:40.042Z,39.22
2023-02-13T01:14:07.176Z,38.78
2023-02-13T01:16:34.629Z,38.90
2023-02-13T01:19:02.331Z,39.02
2023-02-13T01:21:31.796Z,38.85
2023-02-13T01:24:02.452Z,38.66
2023-02-13T01:26:29.593Z,38.60
2023-02-13T01:28:58.099Z,38.33
2023-02-13T01:31:26.049Z,37.96
2023-02-13T01:33:55.814Z,37.96
2023-02-13T01:36:22.972Z,37.93
2023-02-13T01:38:52.999Z,37.89
2023-02-13T01:41:20.255Z,37.96
2023-02-13T01:43:57.786Z,37.84
2023-02-13T01:46:39.429Z,38.02
2023-02-13T01:49:11.066Z,38.32
2023-02-13T01:51:38.501Z,38.32
2023-02-13T01:54:32.088Z,38.58
2023-02-13T01:57:01.319Z,38.58
2023-02-13T01:59:29.769Z,38.22
2023-02-13T02:01:57.372Z,38.25
2023-02-13T02:04:26.737Z,38.24
2023-02-13T02:06:55.844Z,38.21
2023-02-13T02:09:23.899Z,38.71
2023-02-13T02:11:52.747Z,38.49
2023-02-13T02:14:20.432Z,38.32
2023-02-13T02:16:47.579Z,37.85
2023-02-13T02:19:19.472Z,37.95
2023-02-13T02:22:02.691Z,37.77
2023-02-13T02:24:35.397Z,37.78
2023-02-13T02:27:24.384Z,37.33
2023-02-13T02:29:57.180Z,37.65
2023-02-13T02:32:24.479Z,37.89
2023-02-13T02:34:56.733Z,37.76
2023-02-13T02:37:42.701Z,37.53
2023-02-13T02:40:29.238Z,37.54
2023-02-13T02:43:16.677Z,37.55
2023-02-13T02:45:54.942Z,37.58
2023-02-13T02:49:00.083Z,37.75
2023-02-13T02:51:31.687Z,37.86
2023-02-13T02:54:02.806Z,37.45
2023-02-13T02:56:38.044Z,37.62
2023-02-13T02:59:24.787Z,37.47
2023-02-13T03:02:12.186Z,37.57
2023-02-13T03:04:58.164Z,37.53
2023-02-13T03:07:25.618Z,37.18
2023-02-13T03:10:12.453Z,37.43
2023-02-13T03:13:08.677Z,37.68
2023-02-13T03:15:58.264Z,37.99
2023-02-13T03:18:44.547Z,38.01
2023-02-13T03:21:33.307Z,37.71
2023-02-13T03:24:04.540Z,37.55
2023-02-13T03:26:46.195Z,37.59
2023-02-13T03:29:42.758Z,37.75
2023-02-13T03:32:19.721Z,37.63
2023-02-13T03:35:09.075Z,37.59
2023-02-13T03:37:54.745Z,37.83
2023-02-13T03:40:35.863Z,37.70
2023-02-13T03:43:11.082Z,37.48
2023-02-13T03:45:54.376Z,37.47
2023-02-13T03:48:44.546Z,37.67
2023-02-13T03:51:12.755Z,37.21
2023-02-13T03:53:39.953Z,37.37
2023-02-13T03:56:25.947Z,37.56
2023-02-13T03:59:12.576Z,37.75
2023-02-13T04:01:39.838Z,37.89
2023-02-13T04:04:33.501Z,37.98
2023-02-13T04:07:00.591Z,37.39
2023-02-13T04:09:28.405Z,37.66
2023-02-13T04:12:17.417Z,37.91
2023-02-13T04:14:53.398Z,37.89
2023-02-13T04:17:24.478Z,37.87
2023-02-13T04:19:51.911Z,37.76
2023-02-13T04:22:19.051Z,37.85
2023-02-13T04:24:46.343Z,37.14
2023-02-13T04:27:15.124Z,36.81
2023-02-13T04:29:42.278Z,36.89
2023-02-13T04:32:12.843Z,37.90
2023-02-13T04:34:40.277Z,37.98
2023-02-13T04:37:07.405Z,37.72
2023-02-13T04:39:34.999Z,37.41
2023-02-13T04:42:02.490Z,37.33
2023-02-13T04:44:29.626Z,37.01
2023-02-13T04:46:56.791Z,37.44
2023-02-13T04:49:24.221Z,37.35
2023-02-13T04:51:51.382Z,37.61
2023-02-13T04:54:18.538Z,37.42
2023-02-13T04:56:45.961Z,37.39
2023-02-13T04:59:13.212Z,37.60
2023-02-13T05:01:40.417Z,36.94
2023-02-13T05:04:07.943Z,37.31
2023-02-13T05:06:35.117Z,37.49
2023-02-13T05:09:02.251Z,37.83
2023-02-13T05:11:29.692Z,37.67
2023-02-13T05:13:56.837Z,37.75
2023-02-13T05:16:23.966Z,37.63
2023-02-13T05:18:54.874Z,37.50
2023-02-13T05:21:40.702Z,37.89
2023-02-13T05:24:08.151Z,38.23
2023-02-13T05:26:35.428Z,38.27
2023-02-13T05:29:22.602Z,38.26
2023-02-13T05:31:50.917Z,37.81
2023-02-13T05:34:20.298Z,37.75
2023-02-13T05:36:47.432Z,37.62
2023-02-13T05:39:15.399Z,37.61
2023-02-13T05:41:43.310Z,37.43
2023-02-13T05:44:13.000Z,37.29
2023-02-13T05:46:40.680Z,37.83
2023-02-13T05:49:08.086Z,37.85
2023-02-13T05:51:35.227Z,37.64
2023-02-13T05:54:03.003Z,37.54
2023-02-13T05:56:30.150Z,37.43
2023-02-13T05:58:57.502Z,36.94
2023-02-13T06:01:25.018Z,37.42
2023-02-13T06:03:52.488Z,37.46
2023-02-13T06:06:20.057Z,37.49
2023-02-13T06:08:47.198Z,37.17
2023-02-13T06:11:14.660Z,36.88
2023-02-13T06:13:41.800Z,37.50
2023-02-13T06:16:09.641Z,37.56
2023-02-13T06:18:37.289Z,37.59
2023-02-13T06:21:04.783Z,37.38
2023-02-13T06:23:31.958Z,36.97
2023-02-13T06:26:05.698Z,37.08
2023-02-13T06:28:33.159Z,37.62
2023-02-13T06:31:01.141Z,38.27
2023-02-13T06:33:28.727Z,38.05
2023-02-13T06:35:55.872Z,37.70
2023-02-13T06:38:24.338Z,37.93
2023-02-13T06:40:51.744Z,39.23
2023-02-13T06:43:19.001Z,39.73
2023-02-13T06:45:47.252Z,40.12
2023-02-13T06:48:14.731Z,39.75
2023-02-13T06:50:41.888Z,39.90
2023-02-13T06:53:09.345Z,40.59
2023-02-13T06:55:36.691Z,40.56
2023-02-13T06:58:03.869Z,41.27
2023-02-13T07:00:31.473Z,40.44
2023-02-13T07:03:02.816Z,39.65
2023-02-13T07:05:30.055Z,39.96
2023-02-13T07:07:58.458Z,39.63
2023-02-13T07:10:25.601Z,39.54
2023-02-13T07:13:05.037Z,39.38
2023-02-13T07:15:33.769Z,39.54
2023-02-13T07:18:01.159Z,39.29
2023-02-13T07:20:28.677Z,39.49
2023-02-13T07:23:03.906Z,39.47
2023-02-13T07:25:31.212Z,39.76
2023-02-13T07:28:05.143Z,39.77
2023-02-13T07:30:34.244Z,40.31
2023-02-13T07:33:02.044Z,40.67
2023-02-13T07:35:29.293Z,41.47
2023-02-13T07:37:56.457Z,40.89
2023-02-13T07:40:23.895Z,42.50
2023-02-13T07:42:51.031Z,42.35
2023-02-13T07:45:18.203Z,42.82
2023-02-13T07:47:45.630Z,41.38
2023-02-13T07:50:12.847Z,43.36
2023-02-13T07:52:40.062Z,43.38
2023-02-13T07:55:07.757Z,42.88
2023-02-13T07:57:34.885Z,42.08
2023-02-13T08:00:02.176Z,41.83
2023-02-13T08:02:38.899Z,42.03
2023-02-13T08:05:06.592Z,41.66
2023-02-13T08:07:33.788Z,41.02
2023-02-13T08:10:19.648Z,42.88
2023-02-13T08:12:47.093Z,41.70
2023-02-13T08:15:14.830Z,41.69
2023-02-13T08:17:41.980Z,41.51
2023-02-13T08:20:09.704Z,41.35
2023-02-13T08:22:37.015Z,40.54
2023-02-13T08:25:04.691Z,39.75
2023-02-13T08:27:32.236Z,40.12
2023-02-13T08:29:59.827Z,38.76
2023-02-13T08:32:26.975Z,38.07
2023-02-13T08:34:54.388Z,38.30
2023-02-13T08:37:21.543Z,38.03
2023-02-13T08:39:48.674Z,38.22
2023-02-13T08:42:16.503Z,38.23
2023-02-13T08:44:43.877Z,38.54
2023-02-13T08:47:11.013Z,38.61
2023-02-13T08:49:38.416Z,38.63
2023-02-13T08:52:05.903Z,38.80
2023-02-13T08:54:34.050Z,38.93
2023-02-13T08:57:01.497Z,39.63
2023-02-13T08:59:28.682Z,38.58
2023-02-13T09:01:56.745Z,39.52
2023-02-13T09:04:24.170Z,38.66
2023-02-13T09:06:51.322Z,38.07
2023-02-13T09:09:18.574Z,37.85
2023-02-13T09:11:45.999Z,40.70
2023-02-13T09:14:13.217Z,41.33
2023-02-13T09:16:40.409Z,40.27
2023-02-13T09:19:07.866Z,40.15
2023-02-13T09:21:35.299Z,39.86
2023-02-13T09:24:02.432Z,41.03
2023-02-13T09:26:29.878Z,39.81
2023-02-13T09:28:57.034Z,39.65
2023-02-13T09:31:24.435Z,39.38
2023-02-13T09:33:52.029Z,39.45
2023-02-13T09:36:20.308Z,39.03
2023-02-13T09:38:57.156Z,39.13
2023-02-13T09:41:39.927Z,38.40
2023-02-13T09:44:35.601Z,37.84
2023-02-13T09:47:21.744Z,36.91
2023-02-13T09:49:50.158Z,38.86
2023-02-13T09:52:17.704Z,39.18
2023-02-13T09:54:44.900Z,36.93
2023-02-13T09:57:29.438Z,36.65
2023-02-13T09:59:58.742Z,36.15
2023-02-13T10:02:31.966Z,35.63
2023-02-13T10:05:18.275Z,36.33
2023-02-13T10:08:03.937Z,36.18
2023-02-13T10:10:47.082Z,37.47
2023-02-13T10:13:23.669Z,36.19
2023-02-13T10:15:52.312Z,36.73
2023-02-13T10:18:20.612Z,36.30
2023-02-13T10:20:57.034Z,36.14
2023-02-13T10:23:40.654Z,36.00
2023-02-13T10:26:08.750Z,35.99
2023-02-13T10:28:44.958Z,35.68
2023-02-13T10:31:16.212Z,34.99
2023-02-13T10:33:48.086Z,34.41
2023-02-13T10:36:22.564Z,36.64
2023-02-13T10:38:53.009Z,36.96
2023-02-13T10:41:24.137Z,37.02
2023-02-13T10:44:02.190Z,37.40
2023-02-13T10:46:48.191Z,38.05
2023-02-13T10:49:25.091Z,37.85
2023-02-13T10:51:54.933Z,38.72
2023-02-13T10:54:25.225Z,39.44
2023-02-13T10:57:11.203Z,37.98
2023-02-13T10:59:45.601Z,38.53
2023-02-13T11:02:12.769Z,37.79
2023-02-13T11:04:41.553Z,37.28
2023-02-13T11:07:11.596Z,37.23
2023-02-13T11:09:40.294Z,40.36
2023-02-13T11:12:23.912Z,40.46
2023-02-13T11:15:00.364Z,41.24
2023-02-13T11:17:29.231Z,41.71
2023-02-13T11:19:57.315Z,42.50
2023-02-13T11:22:43.336Z,41.00
2023-02-13T11:25:24.098Z,41.28
2023-02-13T11:27:53.103Z,39.48
2023-02-13T11:30:23.523Z,40.40
2023-02-13T11:33:07.830Z,40.10
2023-02-13T11:35:35.981Z,40.15
2023-02-13T11:38:15.488Z,39.22
2023-02-13T11:40:45.058Z,38.88
2023-02-13T11:43:30.895Z,39.04
2023-02-13T11:46:16.476Z,38.41
2023-02-13T11:48:44.458Z,38.42
2023-02-13T11:51:12.001Z,40.05
2023-02-13T11:53:39.611Z,39.18
2023-02-13T11:56:14.296Z,38.90
2023-02-13T11:58:42.268Z,40.42
2023-02-13T12:01:21.763Z,39.53
2023-02-13T12:04:03.020Z,40.62
2023-02-13T12:06:30.907Z,39.46
2023-02-13T12:08:58.976Z,40.08
2023-02-13T12:11:37.222Z,40.95
2023-02-13T12:14:04.745Z,40.36
2023-02-13T12:16:34.178Z,39.59
2023-02-13T12:19:02.539Z,39.96
2023-02-13T12:21:48.714Z,40.94
2023-02-13T12:24:22.884Z,40.23
2023-02-13T12:26:54.645Z,39.11
2023-02-13T12:29:31.111Z,40.79
2023-02-13T12:32:01.368Z,39.50
2023-02-13T12:34:37.352Z,39.64
2023-02-13T12:37:10.798Z,38.92
2023-02-13T12:39:38.922Z,39.46
2023-02-13T12:42:21.622Z,39.46
2023-02-13T12:44:51.656Z,39.39
2023-02-13T12:47:23.058Z,39.53
2023-02-13T12:49:59.308Z,39.04
2023-02-13T12:52:26.726Z,40.17
2023-02-13T12:55:12.356Z,40.40
2023-02-13T12:57:42.694Z,38.36
2023-02-13T13:00:12.847Z,38.12
2023-02-13T13:03:02.669Z,38.10
2023-02-13T13:05:50.651Z,39.65
2023-02-13T13:08:21.965Z,39.21
2023-02-13T13:10:50.905Z,39.67
2023-02-13T13:13:18.573Z,40.36
2023-02-13T13:15:45.960Z,38.26
2023-02-13T13:18:31.579Z,39.22
2023-02-13T13:21:10.358Z,39.29
2023-02-13T13:23:37.451Z,38.70
2023-02-13T13:26:07.465Z,38.83
2023-02-13T13:28:38.352Z,38.46
2023-02-13T13:31:05.889Z,38.35
2023-02-13T13:33:33.680Z,37.43
2023-02-13T13:36:00.786Z,38.36
2023-02-13T13:38:31.527Z,37.73
2023-02-13T13:41:00.583Z,41.29
2023-02-13T13:43:40.381Z,38.25
2023-02-13T13:46:10.323Z,37.65
2023-02-13T13:48:45.406Z,37.25
2023-02-13T13:51:13.009Z,37.58
2023-02-13T13:53:59.228Z,36.79
2023-02-13T13:56:26.888Z,38.45
2023-02-13T13:59:12.928Z,39.35
2023-02-13T14:01:40.169Z,40.17
2023-02-13T14:04:26.245Z,40.36
2023-02-13T14:06:59.568Z,41.24
2023-02-13T14:09:26.958Z,40.89
2023-02-13T14:11:54.838Z,42.08
2023-02-13T14:14:28.267Z,42.80
2023-02-13T14:16:56.363Z,41.00
2023-02-13T14:19:29.629Z,40.17
2023-02-13T14:22:15.624Z,39.51
2023-02-13T14:24:44.299Z,40.40
2023-02-13T14:27:19.949Z,40.50
2023-02-13T14:29:47.741Z,40.28
2023-02-13T14:32:16.598Z,41.96
2023-02-13T14:34:48.256Z,41.84
2023-02-13T14:37:30.266Z,41.73
2023-02-13T14:40:29.708Z,39.41
2023-02-13T14:43:00.559Z,39.12
2023-02-13T14:45:29.042Z,39.38
2023-02-13T14:47:57.018Z,38.95
2023-02-13T14:50:25.347Z,38.60
2023-02-13T14:52:52.492Z,40.57
2023-02-13T14:55:31.892Z,39.70
2023-02-13T14:58:06.957Z,41.51
2023-02-13T15:00:34.368Z,39.43
2023-02-13T15:03:04.147Z,38.94
2023-02-13T15:05:34.147Z,39.64
2023-02-13T15:08:28.191Z,39.86
2023-02-13T15:10:56.064Z,38.59
2023-02-13T15:13:31.233Z,38.83
2023-02-13T15:16:09.136Z,40.14
2023-02-13T15:18:39.572Z,39.30
2023-02-13T15:21:25.191Z,38.31
2023-02-13T15:23:53.382Z,38.79
2023-02-13T15:26:22.777Z,38.95
2023-02-13T15:29:17.374Z,38.29
2023-02-13T15:31:53.190Z,38.11
2023-02-13T15:34:32.306Z,37.75
2023-02-13T15:37:00.031Z,37.84
2023-02-13T15:39:28.752Z,36.96
2023-02-13T15:41:58.442Z,36.66
2023-02-13T15:44:26.050Z,36.63
2023-02-13T15:46:53.992Z,37.17
2023-02-13T15:49:22.299Z,36.57
2023-02-13T15:51:50.058Z,36.18
2023-02-13T15:54:24.062Z,37.31
2023-02-13T15:56:52.645Z,37.97
2023-02-13T15:59:19.883Z,37.03
2023-02-13T16:01:49.331Z,37.23
2023-02-13T16:04:20.690Z,37.84
2023-02-13T16:06:49.356Z,36.96
2023-02-13T16:09:29.650Z,36.71
2023-02-13T16:12:00.520Z,37.93
2023-02-13T16:14:28.457Z,37.88
2023-02-13T16:16:56.112Z,37.70
2023-02-13T16:19:23.840Z,36.74
2023-02-13T16:21:51.547Z,36.84
2023-02-13T16:24:19.180Z,37.54
2023-02-13T16:26:47.497Z,37.12
2023-02-13T16:29:19.132Z,36.29
2023-02-13T16:31:50.017Z,36.57
2023-02-13T16:34:28.141Z,36.35
2023-02-13T16:36:56.153Z,36.76
2023-02-13T16:39:29.120Z,36.94
2023-02-13T16:42:00.382Z,36.58
2023-02-13T16:44:28.815Z,35.73
2023-02-13T16:46:58.920Z,35.41
2023-02-13T16:49:28.494Z,35.03
2023-02-13T16:52:15.880Z,35.10
2023-02-13T16:54:51.918Z,35.31
2023-02-13T16:57:24.574Z,35.34
2023-02-13T16:59:56.080Z,35.52
2023-02-13T17:02:29.973Z,35.30
2023-02-13T17:05:10.067Z,35.52
2023-02-13T17:07:38.816Z,36.15
2023-02-13T17:10:09.097Z,36.43
2023-02-13T17:12:37.647Z,36.38
2023-02-13T17:15:07.922Z,37.08
2023-02-13T17:17:37.446Z,37.43
2023-02-13T17:20:06.599Z,37.13
2023-02-13T17:22:39.620Z,36.71
2023-02-13T17:25:16.244Z,36.43
2023-02-13T17:27:44.258Z,36.81
2023-02-13T17:30:15.949Z,36.83
2023-02-13T17:32:43.735Z,36.74
2023-02-13T17:35:13.358Z,36.59
2023-02-13T17:37:42.300Z,36.62
2023-02-13T17:40:14.924Z,36.91
2023-02-13T17:42:44.188Z,36.80
2023-02-13T17:45:14.359Z,37.66
2023-02-13T17:47:42.575Z,37.60
2023-02-13T17:50:11.140Z,36.91
2023-02-13T17:52:39.419Z,37.09
2023-02-13T17:55:15.598Z,37.22
2023-02-13T17:57:44.377Z,37.75
2023-02-13T18:00:12.522Z,37.46
2023-02-13T18:02:42.896Z,38.38
2023-02-13T18:05:11.242Z,38.44
2023-02-13T18:07:41.323Z,38.58
2023-02-13T18:10:13.131Z,39.44
2023-02-13T18:12:43.023Z,38.69
2023-02-13T18:15:11.736Z,38.39
2023-02-13T18:17:41.512Z,39.68
2023-02-13T18:20:12.057Z,40.38
2023-02-13T18:22:41.586Z,39.67
2023-02-13T18:25:10.611Z,39.60
2023-02-13T18:27:39.312Z,39.92
2023-02-13T18:30:09.092Z,39.80
2023-02-13T18:32:38.056Z,39.36
2023-02-13T18:35:07.962Z,39.06
2023-02-13T18:37:37.375Z,38.79
2023-02-13T18:40:12.414Z,40.06
2023-02-13T18:42:40.863Z,39.73
2023-02-13T18:45:14.124Z,39.61
2023-02-13T18:47:42.885Z,39.47
2023-02-13T18:50:12.005Z,39.41
2023-02-13T18:52:40.436Z,39.31
2023-02-13T18:55:10.476Z,39.49
2023-02-13T18:57:43.790Z,39.04
2023-02-13T19:00:14.563Z,38.90
2023-02-13T19:02:44.718Z,39.53
2023-02-13T19:05:13.196Z,39.24
2023-02-13T19:07:41.265Z,39.11
2023-02-13T19:10:10.647Z,39.23
2023-02-13T19:12:38.613Z,39.27
2023-02-13T19:15:09.003Z,39.44
2023-02-13T19:17:37.777Z,39.67
2023-02-13T19:20:07.106Z,39.46
2023-02-13T19:22:35.785Z,38.99
2023-02-13T19:25:05.167Z,38.71
2023-02-13T19:27:36.849Z,39.06
2023-02-13T19:30:05.795Z,38.91
2023-02-13T19:32:33.248Z,39.16
2023-02-13T19:35:04.127Z,39.14
2023-02-13T19:37:43.457Z,40.78
2023-02-13T19:40:13.575Z,40.10
2023-02-13T19:42:44.550Z,40.12
2023-02-13T19:45:16.045Z,41.42
2023-02-13T19:47:49.672Z,41.38
2023-02-13T19:50:21.686Z,43.00
2023-02-13T19:52:52.007Z,42.42
2023-02-13T19:55:22.722Z,42.42
2023-02-13T19:57:56.978Z,43.17
2023-02-13T20:00:25.880Z,44.30
2023-02-13T20:02:55.653Z,43.96
2023-02-13T20:05:24.413Z,43.96
2023-02-13T20:07:53.903Z,43.58
2023-02-13T20:10:23.315Z,43.33
2023-02-13T20:12:54.806Z,43.12
2023-02-13T20:15:24.233Z,43.46
2023-02-13T20:17:52.324Z,43.13
2023-02-13T20:20:20.027Z,42.79
2023-02-13T20:22:49.609Z,43.09
2023-02-13T20:25:19.316Z,42.54
2023-02-13T20:27:53.305Z,43.50
2023-02-13T20:30:22.070Z,43.72
2023-02-13T20:32:50.604Z,43.83
2023-02-13T20:35:19.274Z,44.79
2023-02-13T20:37:47.384Z,45.80
2023-02-13T20:40:14.888Z,45.22
2023-02-13T20:42:43.893Z,43.76
2023-02-13T20:45:12.820Z,45.13
2023-02-13T20:47:43.309Z,44.69
2023-02-13T20:50:11.645Z,43.49
2023-02-13T20:52:40.666Z,43.07
2023-02-13T20:55:08.533Z,42.23
2023-02-13T20:57:36.981Z,41.52
2023-02-13T21:00:06.438Z,41.46
2023-02-13T21:02:37.023Z,41.11
2023-02-13T21:05:05.253Z,41.73
2023-02-13T21:07:33.081Z,41.07
2023-02-13T21:10:02.784Z,40.87
2023-02-13T21:12:30.951Z,40.82
2023-02-13T21:14:59.144Z,40.59
2023-02-13T21:17:27.224Z,40.83
2023-02-13T21:19:56.001Z,41.09
2023-02-13T21:22:23.684Z,41.14
2023-02-13T21:24:52.562Z,40.71
2023-02-13T21:27:21.151Z,40.84
2023-02-13T21:29:49.117Z,40.74
2023-02-13T21:32:17.391Z,41.02
2023-02-13T21:34:46.894Z,41.81
2023-02-13T21:37:15.124Z,42.87
2023-02-13T21:39:42.500Z,41.99
2023-02-13T21:42:10.470Z,41.63
2023-02-13T21:44:37.925Z,41.48
2023-02-13T21:47:07.093Z,41.93
2023-02-13T21:49:35.874Z,41.80
2023-02-13T21:52:03.148Z,41.31
2023-02-13T21:54:30.540Z,41.04
2023-02-13T21:56:58.478Z,41.42
2023-02-13T21:59:25.825Z,42.06
2023-02-13T22:01:54.464Z,41.93
2023-02-13T22:04:23.243Z,42.22
2023-02-13T22:06:51.172Z,42.33
2023-02-13T22:09:19.532Z,42.76
2023-02-13T22:11:47.008Z,42.87
2023-02-13T22:14:17.033Z,43.03
2023-02-13T22:16:45.068Z,43.15
2023-02-13T22:19:14.853Z,43.00
2023-02-13T22:21:42.206Z,42.78
2023-02-13T22:24:09.429Z,43.54
2023-02-13T22:26:38.000Z,43.32
2023-02-13T22:29:06.765Z,43.20
2023-02-13T22:31:34.345Z,43.42
2023-02-13T22:34:04.246Z,44.15
2023-02-13T22:36:32.760Z,43.84
2023-02-13T22:38:59.965Z,43.00
2023-02-13T22:41:27.646Z,43.85
2023-02-13T22:43:58.246Z,44.40
2023-02-13T22:46:32.238Z,44.92
2023-02-13T22:49:00.009Z,44.91
2023-02-13T22:51:28.528Z,45.96
2023-02-13T22:53:56.568Z,46.61
2023-02-13T22:56:25.841Z,45.53
2023-02-13T22:58:53.032Z,44.46
2023-02-13T23:01:21.085Z,44.00
2023-02-13T23:03:48.597Z,44.47
2023-02-13T23:06:15.990Z,45.67
2023-02-13T23:08:43.489Z,44.74
2023-02-13T23:11:31.007Z,45.89
2023-02-13T23:13:58.261Z,45.12
2023-02-13T23:16:25.940Z,44.94
2023-02-13T23:18:56.638Z,44.57
2023-02-13T23:21:24.461Z,45.20
2023-02-13T23:23:52.049Z,45.08
2023-02-13T23:26:19.222Z,45.25
2023-02-13T23:28:46.401Z,45.12
2023-02-13T23:31:13.975Z,44.99
2023-02-13T23:33:41.188Z,44.83
2023-02-13T23:36:08.352Z,43.99
2023-02-13T23:38:35.791Z,45.03
2023-02-13T23:41:09.281Z,45.15
2023-02-13T23:43:36.750Z,46.35
2023-02-13T23:46:04.641Z,50.35
2023-02-13T23:48:31.902Z,52.50
2023-02-13T23:50:59.720Z,50.90
2023-02-13T23:53:27.020Z,48.96
2023-02-13T23:55:55.076Z,48.60
2023-02-13T23:58:22.592Z,47.60
